PWSweather.com
Personal Weather Stations
Station Observations
BLACKWELL
Blackwell, AlfretonGB DE55

BlackwellAlfretonGB DE55

Lat: 53.12076, Lon: -1.354978

Elevation: 410

Station Type: Vantage Pro

High Low Average
Temperature 52.5°F11.4°C 42.3°F5.7°C 48.8°F9.3°C
Dew Point 49.1°F9.5°C 35.4°F1.9°C 42.1°F5.6°C
Winds 7.0 mph 11.3 kmh Calm Calm 3.0 mph SW4.8 kmh SW
Wind Gusts 16.0 mph25.7 kmh -- 9.0 mph14.5 kmh
Humidity 95% 65% 78%
Pressure 29.75 in1007.5 mb 29.47 in998.0 mb -
Precipitation 0.02 in0.5 mm - -
Hour Temp Dew Point Humidity Winds Wind Gusts Pressure Precip Precip Rate Daily Precip Total
12:44 AM 44.2°F6.8°C 41.7°F5.4°C 91% Calm Calm 4.0 mph6.4 kmh 29.58 in1001.7 mb 0.00 in0.0 mm 0.00 in0.0 mm 0.00 in0.0 mm
01:44 AM 44.2°F6.8°C 42.6°F5.9°C 94% 1.0 mph WSW1.6 kmh WSW 5.0 mph8.0 kmh 29.55 in1000.7 mb 0.01 in0.3 mm 0.00 in0.0 mm 0.01 in0.3 mm
02:44 AM 46.0°F7.8°C 44.8°F7.1°C 95% 1.0 mph WSW1.6 kmh WSW 4.0 mph6.4 kmh 29.51 in999.3 mb 0.00 in0.0 mm 0.00 in0.0 mm 0.01 in0.3 mm
03:44 AM 49.6°F9.8°C 48.4°F9.1°C 95% 2.0 mph SW3.2 kmh SW 7.0 mph11.3 kmh 29.49 in998.6 mb 0.01 in0.3 mm 0.00 in0.0 mm 0.02 in0.5 mm
04:44 AM 51.3°F10.7°C 49.1°F9.5°C 92% 4.0 mph SW6.4 kmh SW 10.0 mph16.1 kmh 29.47 in998.0 mb 0.00 in0.0 mm 0.00 in0.0 mm 0.02 in0.5 mm
05:44 AM 52.5°F11.4°C 48.4°F9.1°C 86% 5.0 mph SW8.0 kmh SW 12.0 mph19.3 kmh 29.47 in998.0 mb 0.00 in0.0 mm 0.00 in0.0 mm 0.02 in0.5 mm
06:44 AM 52.0°F11.1°C 48.6°F9.2°C 88% 4.0 mph SW6.4 kmh SW 13.0 mph20.9 kmh 29.48 in998.3 mb 0.00 in0.0 mm 0.00 in0.0 mm 0.02 in0.5 mm
07:44 AM 52.2°F11.2°C 47.1°F8.4°C 83% 6.0 mph SW9.7 kmh SW 14.0 mph22.5 kmh 29.49 in998.6 mb 0.00 in0.0 mm 0.00 in0.0 mm 0.02 in0.5 mm
08:44 AM 52.0°F11.1°C 45.3°F7.4°C 78% 6.0 mph SW9.7 kmh SW 12.0 mph19.3 kmh 29.50 in999.0 mb 0.00 in0.0 mm 0.00 in0.0 mm 0.02 in0.5 mm
09:44 AM 52.5°F11.4°C 44.1°F6.7°C 73% 6.0 mph SW9.7 kmh SW 15.0 mph24.1 kmh 29.53 in1000.0 mb 0.00 in0.0 mm 0.00 in0.0 mm 0.02 in0.5 mm
10:44 AM 52.2°F11.2°C 42.3°F5.7°C 69% 6.0 mph SW9.7 kmh SW 13.0 mph20.9 kmh 29.55 in1000.7 mb 0.00 in0.0 mm 0.00 in0.0 mm 0.02 in0.5 mm
11:44 AM 52.2°F11.2°C 41.0°F5.0°C 66% 7.0 mph SW11.3 kmh SW 16.0 mph25.7 kmh 29.56 in1001.0 mb 0.00 in0.0 mm 0.00 in0.0 mm 0.02 in0.5 mm
12:44 PM 51.6°F10.9°C 40.3°F4.6°C 65% 7.0 mph SW11.3 kmh SW 15.0 mph24.1 kmh 29.58 in1001.7 mb 0.00 in0.0 mm 0.00 in0.0 mm 0.02 in0.5 mm
01:44 PM 51.4°F10.8°C 40.8°F4.9°C 67% 6.0 mph SW9.7 kmh SW 15.0 mph24.1 kmh 29.60 in1002.4 mb 0.00 in0.0 mm 0.00 in0.0 mm 0.02 in0.5 mm
02:44 PM 50.0°F10.0°C 41.4°F5.2°C 72% 4.0 mph SW6.4 kmh SW 12.0 mph19.3 kmh 29.62 in1003.0 mb 0.00 in0.0 mm 0.00 in0.0 mm 0.02 in0.5 mm
03:44 PM 50.7°F10.4°C 39.7°F4.3°C 66% 3.0 mph SW4.8 kmh SW 9.0 mph14.5 kmh 29.65 in1004.1 mb 0.00 in0.0 mm 0.00 in0.0 mm 0.02 in0.5 mm
04:44 PM 49.5°F9.7°C 39.0°F3.9°C 67% 1.0 mph SW1.6 kmh SW 6.0 mph9.7 kmh 29.68 in1005.1 mb 0.00 in0.0 mm 0.00 in0.0 mm 0.02 in0.5 mm
05:44 PM 48.4°F9.1°C 39.0°F3.9°C 70% 2.0 mph SW3.2 kmh SW 8.0 mph12.9 kmh 29.72 in1006.4 mb 0.00 in0.0 mm 0.00 in0.0 mm 0.02 in0.5 mm
06:44 PM 45.9°F7.7°C 36.7°F2.6°C 70% 2.0 mph SW3.2 kmh SW 5.0 mph8.0 kmh 29.71 in1006.1 mb 0.00 in0.0 mm 0.00 in0.0 mm 0.02 in0.5 mm
07:44 PM 45.7°F7.6°C 35.4°F1.9°C 67% 1.0 mph SW1.6 kmh SW 6.0 mph9.7 kmh 29.72 in1006.4 mb 0.00 in0.0 mm 0.00 in0.0 mm 0.02 in0.5 mm
09:34 PM 43.9°F6.6°C 36.9°F2.7°C 76% Calm Calm 2.0 mph3.2 kmh 29.75 in1007.5 mb 0.00 in0.0 mm 0.00 in0.0 mm 0.02 in0.5 mm
10:34 PM 42.3°F5.7°C 37.8°F3.2°C 84% Calm Calm -- 29.74 in1007.1 mb 0.00 in0.0 mm 0.00 in0.0 mm 0.02 in0.5 mm
11:34 PM 43.0°F6.1°C 39.0°F3.9°C 86% Calm Calm -- 29.72 in1006.4 mb 0.00 in0.0 mm 0.00 in0.0 mm 0.02 in0.5 mm